createdAt,value
2017-10-21T00:00:43.760Z,15.93
2017-10-21T00:03:11.086Z,15.40
2017-10-21T00:05:38.404Z,14.80
2017-10-21T00:08:05.836Z,16.63
2017-10-21T00:10:33.192Z,17.40
2017-10-21T00:13:00.491Z,16.63
2017-10-21T00:15:28.147Z,17.07
2017-10-21T00:17:55.532Z,17.97
2017-10-21T00:20:23.853Z,17.20
2017-10-21T00:22:51.208Z,17.23
2017-10-21T00:25:18.566Z,17.40
2017-10-21T00:27:45.873Z,17.17
2017-10-21T00:30:13.189Z,17.23
2017-10-21T00:32:40.511Z,17.83
2017-10-21T00:35:07.818Z,16.57
2017-10-21T00:37:35.142Z,17.37
2017-10-21T00:40:02.448Z,17.17
2017-10-21T00:42:29.763Z,15.40
2017-10-21T00:44:57.084Z,15.77
2017-10-21T00:47:24.400Z,15.83
2017-10-21T00:49:51.817Z,14.70
2017-10-21T00:52:19.201Z,12.63
2017-10-21T00:54:46.517Z,12.90
2017-10-21T00:57:13.834Z,13.17
2017-10-21T00:59:41.210Z,12.00
2017-10-21T01:02:08.503Z,11.60
2017-10-21T01:04:35.845Z,10.20
2017-10-21T01:07:03.156Z,11.30
2017-10-21T01:09:30.901Z,10.50
2017-10-21T01:11:58.255Z,10.43
2017-10-21T01:14:25.585Z,10.10
2017-10-21T01:16:52.885Z,10.57
2017-10-21T01:19:20.219Z,9.20
2017-10-21T01:21:47.521Z,9.67
2017-10-21T01:24:14.828Z,9.00
2017-10-21T01:26:42.163Z,9.20
2017-10-21T01:29:09.456Z,9.17
2017-10-21T01:31:36.768Z,10.03
2017-10-21T01:34:04.072Z,9.50
2017-10-21T01:36:31.401Z,9.23
2017-10-21T01:38:58.705Z,9.60
2017-10-21T01:41:27.971Z,9.43
2017-10-21T01:43:55.597Z,10.27
2017-10-21T01:46:22.972Z,10.17
2017-10-21T01:48:50.268Z,10.00
2017-10-21T01:51:17.614Z,9.50
2017-10-21T01:53:44.900Z,9.07
2017-10-21T01:56:12.261Z,10.20
2017-10-21T01:58:39.557Z,9.13
2017-10-21T02:01:06.902Z,9.30
2017-10-21T02:03:34.542Z,9.83
2017-10-21T02:06:01.845Z,9.50
2017-10-21T02:08:29.496Z,9.73
2017-10-21T02:10:56.980Z,8.93
2017-10-21T02:13:24.289Z,9.43
2017-10-21T02:15:51.663Z,9.70
2017-10-21T02:18:19.084Z,9.33
2017-10-21T02:20:46.397Z,9.00
2017-10-21T02:23:13.726Z,9.70
2017-10-21T02:25:41.015Z,9.10
2017-10-21T02:28:08.647Z,9.67
2017-10-21T02:30:36.134Z,8.60
2017-10-21T02:33:03.482Z,10.10
2017-10-21T02:35:30.962Z,8.70
2017-10-21T02:37:58.270Z,8.50
2017-10-21T02:40:25.626Z,9.07
2017-10-21T02:42:52.929Z,8.47
2017-10-21T02:45:20.250Z,8.43
2017-10-21T02:47:47.574Z,9.50
2017-10-21T02:50:14.926Z,8.93
2017-10-21T02:52:42.284Z,8.93
2017-10-21T02:55:09.622Z,8.67
2017-10-21T02:57:36.916Z,8.67
2017-10-21T03:00:04.274Z,8.10
2017-10-21T03:02:31.579Z,9.40
2017-10-21T03:04:59.188Z,8.60
2017-10-21T03:07:26.493Z,8.00
2017-10-21T03:09:53.928Z,8.20
2017-10-21T03:12:21.423Z,7.83
2017-10-21T03:14:48.720Z,7.80
2017-10-21T03:17:16.380Z,7.80
2017-10-21T03:19:43.660Z,8.30
2017-10-21T03:22:10.989Z,8.40
2017-10-21T03:24:38.284Z,8.30
2017-10-21T03:27:05.624Z,7.67
2017-10-21T03:29:33.102Z,8.30
2017-10-21T03:32:00.408Z,7.70
2017-10-21T03:34:27.737Z,7.60
2017-10-21T03:36:55.045Z,7.20
2017-10-21T03:39:22.370Z,6.90
2017-10-21T03:41:49.855Z,6.90
2017-10-21T03:44:17.400Z,6.80
2017-10-21T03:46:44.947Z,6.23
2017-10-21T03:49:12.554Z,6.00
2017-10-21T03:51:40.020Z,6.27
2017-10-21T03:54:07.321Z,5.90
2017-10-21T03:56:34.624Z,5.67
2017-10-21T03:59:02.245Z,5.47
2017-10-21T04:01:29.721Z,6.17
2017-10-21T04:03:57.092Z,6.23
2017-10-21T04:06:24.388Z,6.70
2017-10-21T04:08:51.744Z,6.40
2017-10-21T04:11:19.037Z,7.20
2017-10-21T04:13:46.373Z,7.37
2017-10-21T04:16:13.666Z,7.20
2017-10-21T04:18:41.003Z,6.93
2017-10-21T04:21:08.314Z,6.30
2017-10-21T04:23:35.642Z,6.57
2017-10-21T04:26:02.921Z,6.40
2017-10-21T04:28:30.255Z,6.37
2017-10-21T04:30:57.594Z,7.13
2017-10-21T04:33:24.892Z,6.80
2017-10-21T04:35:52.226Z,6.80
2017-10-21T04:38:19.556Z,6.50
2017-10-21T04:40:46.860Z,7.10
2017-10-21T04:43:14.681Z,5.90
2017-10-21T04:45:42.068Z,6.03
2017-10-21T04:48:09.360Z,6.00
2017-10-21T04:50:36.704Z,5.60
2017-10-21T04:53:04.005Z,8.07
2017-10-21T04:55:31.327Z,5.73
2017-10-21T04:57:58.627Z,5.77
2017-10-21T05:00:25.954Z,5.80
2017-10-21T05:02:53.244Z,5.70
2017-10-21T05:05:20.527Z,5.00
2017-10-21T05:07:47.832Z,5.60
2017-10-21T05:10:15.142Z,6.00
2017-10-21T05:12:42.464Z,5.47
2017-10-21T05:15:09.782Z,5.67
2017-10-21T05:17:37.089Z,5.53
2017-10-21T05:20:04.405Z,5.43
2017-10-21T05:22:31.707Z,5.63
2017-10-21T05:24:59.012Z,5.97
2017-10-21T05:27:26.394Z,5.47
2017-10-21T05:29:53.676Z,5.87
2017-10-21T05:32:20.994Z,5.33
2017-10-21T05:34:48.316Z,5.80
2017-10-21T05:37:15.628Z,6.03
2017-10-21T05:39:42.952Z,6.03
2017-10-21T05:42:10.273Z,5.83
2017-10-21T05:44:37.606Z,6.17
2017-10-21T05:47:04.908Z,5.90
2017-10-21T05:49:32.209Z,6.30
2017-10-21T05:51:59.517Z,5.90
2017-10-21T05:54:26.828Z,5.87
2017-10-21T05:56:54.142Z,5.70
2017-10-21T05:59:21.631Z,6.10
2017-10-21T06:01:48.929Z,5.70
2017-10-21T06:04:16.252Z,6.20
2017-10-21T06:06:43.547Z,6.73
2017-10-21T06:09:10.888Z,6.37
2017-10-21T06:11:39.117Z,6.20
2017-10-21T06:14:06.446Z,5.93
2017-10-21T06:16:33.749Z,6.47
2017-10-21T06:19:01.091Z,6.73
2017-10-21T06:21:28.375Z,6.23
2017-10-21T06:23:56.234Z,6.50
2017-10-21T06:26:23.529Z,6.10
2017-10-21T06:28:50.857Z,5.93
2017-10-21T06:31:18.177Z,6.23
2017-10-21T06:33:45.493Z,6.57
2017-10-21T06:36:12.805Z,7.00
2017-10-21T06:38:40.425Z,6.30
2017-10-21T06:41:08.033Z,6.17
2017-10-21T06:43:35.307Z,6.47
2017-10-21T06:46:02.631Z,7.57
2017-10-21T06:48:29.925Z,7.73
2017-10-21T06:50:57.242Z,7.03
2017-10-21T06:53:24.564Z,6.90
2017-10-21T06:55:51.883Z,5.93
2017-10-21T06:58:19.193Z,7.10
2017-10-21T07:00:46.564Z,6.87
2017-10-21T07:03:13.873Z,7.27
2017-10-21T07:05:41.202Z,6.23
2017-10-21T07:08:08.516Z,7.50
2017-10-21T07:10:35.831Z,7.00
2017-10-21T07:13:03.146Z,6.70
2017-10-21T07:15:30.445Z,6.70
2017-10-21T07:17:57.761Z,6.33
2017-10-21T07:20:25.070Z,6.40
2017-10-21T07:22:52.404Z,7.27
2017-10-21T07:25:19.748Z,6.57
2017-10-21T07:27:47.059Z,6.40
2017-10-21T07:30:14.368Z,6.53
2017-10-21T07:32:41.697Z,6.77
2017-10-21T07:35:09.044Z,6.53
2017-10-21T07:37:36.329Z,6.23
2017-10-21T07:40:03.668Z,6.53
2017-10-21T07:42:30.964Z,6.80
2017-10-21T07:44:58.305Z,6.03
2017-10-21T07:47:25.603Z,6.97
2017-10-21T07:49:52.942Z,6.67
2017-10-21T07:52:20.237Z,6.27
2017-10-21T07:54:47.581Z,6.20
2017-10-21T07:57:14.875Z,5.50
2017-10-21T07:59:42.213Z,6.40
2017-10-21T08:02:09.505Z,6.37
2017-10-21T08:04:37.153Z,6.07
2017-10-21T08:07:04.457Z,5.77
2017-10-21T08:09:31.764Z,6.63
2017-10-21T08:11:59.052Z,5.80
2017-10-21T08:14:26.572Z,5.83
2017-10-21T08:16:53.934Z,7.60
2017-10-21T08:19:21.269Z,6.20
2017-10-21T08:21:48.581Z,7.30
2017-10-21T08:24:15.889Z,7.07
2017-10-21T08:26:43.196Z,7.00
2017-10-21T08:29:10.631Z,6.80
2017-10-21T08:31:37.957Z,6.20
2017-10-21T08:34:05.264Z,6.00
2017-10-21T08:36:32.572Z,6.47
2017-10-21T08:38:59.878Z,6.57
2017-10-21T08:41:27.184Z,6.27
2017-10-21T08:43:54.486Z,5.70
2017-10-21T08:46:21.844Z,5.40
2017-10-21T08:48:49.148Z,6.10
2017-10-21T08:51:16.454Z,6.93
2017-10-21T08:53:43.756Z,6.83
2017-10-21T08:56:11.087Z,7.00
2017-10-21T08:58:38.393Z,6.83
2017-10-21T09:01:05.781Z,6.50
2017-10-21T09:03:33.100Z,6.57
2017-10-21T09:06:00.397Z,6.87
2017-10-21T09:08:27.705Z,6.53
2017-10-21T09:10:55.002Z,6.27
2017-10-21T09:13:22.304Z,6.10
2017-10-21T09:15:49.628Z,6.90
2017-10-21T09:18:16.955Z,6.20
2017-10-21T09:20:44.272Z,6.20
2017-10-21T09:23:11.585Z,6.13
2017-10-21T09:25:38.871Z,6.20
2017-10-21T09:28:06.168Z,6.37
2017-10-21T09:30:33.481Z,5.80
2017-10-21T09:33:04.124Z,6.40
2017-10-21T09:35:31.447Z,6.50
2017-10-21T09:37:58.731Z,6.03
2017-10-21T09:40:26.048Z,7.30
2017-10-21T09:42:53.380Z,6.40
2017-10-21T09:45:20.681Z,6.37
2017-10-21T09:47:48.005Z,6.50
2017-10-21T09:50:15.319Z,6.47
2017-10-21T09:52:42.637Z,6.40
2017-10-21T09:55:09.939Z,7.93
2017-10-21T09:57:37.240Z,6.97
2017-10-21T10:00:04.572Z,6.50
2017-10-21T10:02:31.955Z,6.83
2017-10-21T10:04:59.299Z,6.30
2017-10-21T10:07:26.688Z,6.40
2017-10-21T10:09:54.013Z,6.40
2017-10-21T10:12:21.333Z,5.93
2017-10-21T10:14:48.636Z,5.50
2017-10-21T10:17:15.949Z,6.03
2017-10-21T10:19:43.285Z,5.57
2017-10-21T10:22:10.593Z,5.47
2017-10-21T10:24:38.240Z,5.57
2017-10-21T10:27:05.563Z,5.87
2017-10-21T10:29:33.172Z,5.30
2017-10-21T10:32:00.489Z,5.70
2017-10-21T10:34:27.779Z,5.70
2017-10-21T10:36:55.100Z,5.43
2017-10-21T10:39:22.393Z,6.20
2017-10-21T10:41:49.708Z,5.47
2017-10-21T10:44:17.037Z,5.80
2017-10-21T10:46:44.344Z,5.07
2017-10-21T10:49:11.669Z,5.20
2017-10-21T10:51:38.980Z,6.30
2017-10-21T10:54:06.288Z,5.27
2017-10-21T10:56:33.592Z,5.90
2017-10-21T10:59:00.919Z,6.70
2017-10-21T11:01:28.532Z,6.63
2017-10-21T11:03:55.878Z,6.47
2017-10-21T11:06:23.212Z,6.33
2017-10-21T11:08:50.610Z,5.73
2017-10-21T11:11:18.253Z,6.40
2017-10-21T11:13:45.592Z,6.97
2017-10-21T11:16:12.889Z,6.03
2017-10-21T11:18:40.235Z,6.30
2017-10-21T11:21:07.552Z,6.57
2017-10-21T11:23:34.854Z,7.10
2017-10-21T11:26:02.185Z,6.80
2017-10-21T11:28:29.480Z,7.10
2017-10-21T11:30:56.822Z,7.33
2017-10-21T11:33:24.272Z,7.37
2017-10-21T11:35:51.609Z,7.50
2017-10-21T11:38:18.924Z,7.07
2017-10-21T11:40:46.249Z,7.70
2017-10-21T11:43:13.546Z,7.30
2017-10-21T11:45:40.882Z,7.50
2017-10-21T11:48:08.181Z,7.07
2017-10-21T11:50:35.488Z,7.00
2017-10-21T11:53:02.825Z,7.00
2017-10-21T11:55:30.128Z,7.50
2017-10-21T11:57:57.462Z,7.33
2017-10-21T12:00:24.771Z,6.30
2017-10-21T12:02:52.096Z,6.33
2017-10-21T12:05:19.392Z,6.47
2017-10-21T12:07:46.748Z,6.10
2017-10-21T12:10:14.084Z,6.20
2017-10-21T12:12:41.396Z,6.87
2017-10-21T12:15:08.833Z,6.33
2017-10-21T12:17:36.157Z,6.20
2017-10-21T12:20:03.477Z,5.97
2017-10-21T12:22:30.796Z,6.13
2017-10-21T12:24:58.115Z,6.03
2017-10-21T12:27:25.412Z,5.70
2017-10-21T12:29:52.735Z,5.80
2017-10-21T12:32:20.036Z,5.70
2017-10-21T12:34:47.356Z,5.50
2017-10-21T12:37:15.148Z,6.30
2017-10-21T12:39:42.462Z,5.50
2017-10-21T12:42:09.798Z,5.50
2017-10-21T12:44:37.118Z,5.50
2017-10-21T12:47:04.504Z,6.43
2017-10-21T12:49:31.809Z,5.00
2017-10-21T12:51:59.108Z,5.50
2017-10-21T12:54:26.470Z,5.27
2017-10-21T12:56:53.909Z,5.50
2017-10-21T12:59:21.219Z,5.30
2017-10-21T13:01:48.850Z,5.47
2017-10-21T13:04:16.221Z,5.30
2017-10-21T13:06:43.693Z,5.20
2017-10-21T13:09:10.994Z,5.70
2017-10-21T13:11:38.304Z,5.70
2017-10-21T13:14:05.608Z,5.77
2017-10-21T13:16:32.952Z,5.50
2017-10-21T13:19:00.236Z,5.37
2017-10-21T13:21:27.554Z,5.90
2017-10-21T13:23:54.882Z,5.37
2017-10-21T13:26:22.373Z,5.60
2017-10-21T13:28:49.673Z,5.03
2017-10-21T13:31:17.027Z,4.57
2017-10-21T13:33:44.371Z,5.03
2017-10-21T13:36:11.709Z,5.10
2017-10-21T13:38:39.003Z,5.17
2017-10-21T13:41:06.313Z,5.10
2017-10-21T13:43:33.636Z,5.00
2017-10-21T13:46:00.941Z,5.47
2017-10-21T13:48:28.293Z,5.50
2017-10-21T13:50:55.588Z,5.00
2017-10-21T13:53:22.937Z,5.43
2017-10-21T13:55:50.277Z,5.20
2017-10-21T13:58:18.620Z,4.90
2017-10-21T14:00:45.935Z,5.30
2017-10-21T14:03:13.263Z,5.80
2017-10-21T14:05:40.557Z,6.30
2017-10-21T14:08:07.868Z,5.30
2017-10-21T14:10:35.246Z,5.30
2017-10-21T14:13:02.793Z,5.77
2017-10-21T14:15:30.278Z,5.23
2017-10-21T14:17:57.623Z,4.80
2017-10-21T14:20:24.934Z,5.90
2017-10-21T14:22:52.262Z,5.30
2017-10-21T14:25:19.572Z,6.07
2017-10-21T14:27:46.884Z,6.10
2017-10-21T14:30:14.193Z,5.70
2017-10-21T14:32:41.533Z,5.23
2017-10-21T14:35:08.868Z,5.60
2017-10-21T14:37:36.170Z,5.97
2017-10-21T14:40:03.501Z,5.40
2017-10-21T14:42:30.792Z,6.53
2017-10-21T14:44:58.112Z,5.83
2017-10-21T14:47:25.433Z,5.50
2017-10-21T14:49:52.749Z,5.90
2017-10-21T14:52:20.045Z,6.20
2017-10-21T14:54:47.341Z,5.70
2017-10-21T14:57:14.647Z,6.40
2017-10-21T14:59:41.958Z,6.67
2017-10-21T15:02:09.285Z,6.30
2017-10-21T15:04:36.568Z,7.83
2017-10-21T15:07:03.915Z,9.60
2017-10-21T15:09:31.212Z,10.50
2017-10-21T15:11:58.532Z,9.73
2017-10-21T15:14:25.833Z,10.10
2017-10-21T15:16:53.148Z,10.10
2017-10-21T15:19:20.439Z,9.67
2017-10-21T15:21:47.770Z,10.27
2017-10-21T15:24:15.083Z,9.13
2017-10-21T15:26:42.369Z,9.77
2017-10-21T15:29:09.704Z,9.77
2017-10-21T15:31:37.005Z,10.20
2017-10-21T15:34:04.366Z,9.53
2017-10-21T15:36:31.664Z,10.27
2017-10-21T15:38:58.988Z,9.53
2017-10-21T15:41:26.291Z,9.40
2017-10-21T15:43:53.670Z,10.27
2017-10-21T15:46:20.974Z,10.07
2017-10-21T15:48:48.324Z,10.00
2017-10-21T15:51:15.622Z,9.83
2017-10-21T15:53:42.919Z,11.37
2017-10-21T15:56:10.266Z,11.30
2017-10-21T15:58:37.581Z,10.37
2017-10-21T16:01:04.901Z,10.70
2017-10-21T16:03:32.208Z,10.97
2017-10-21T16:05:59.546Z,10.83
2017-10-21T16:08:26.878Z,11.43
2017-10-21T16:10:54.180Z,12.50
2017-10-21T16:13:21.495Z,12.27
2017-10-21T16:15:48.823Z,13.10
2017-10-21T16:18:16.122Z,14.17
2017-10-21T16:20:43.473Z,13.50
2017-10-21T16:23:10.807Z,13.77
2017-10-21T16:25:38.184Z,14.53
2017-10-21T16:28:05.513Z,14.50
2017-10-21T16:30:32.834Z,15.70
2017-10-21T16:33:00.186Z,15.73
2017-10-21T16:35:27.487Z,16.00
2017-10-21T16:37:54.845Z,16.40
2017-10-21T16:40:22.159Z,16.20
2017-10-21T16:42:49.514Z,16.37
2017-10-21T16:45:17.772Z,16.50
2017-10-21T16:47:45.088Z,17.87
2017-10-21T16:50:12.392Z,17.33
2017-10-21T16:52:39.713Z,17.43
2017-10-21T16:55:07.021Z,15.70
2017-10-21T16:57:34.332Z,14.50
2017-10-21T17:00:02.000Z,14.33
2017-10-21T17:02:29.394Z,14.50
2017-10-21T17:04:56.728Z,14.00
2017-10-21T17:07:24.051Z,13.80
2017-10-21T17:09:51.418Z,14.33
2017-10-21T17:12:18.704Z,14.83
2017-10-21T17:14:46.016Z,15.33
2017-10-21T17:17:13.340Z,14.50
2017-10-21T17:19:40.675Z,13.63
2017-10-21T17:22:07.977Z,13.33
2017-10-21T17:24:35.449Z,12.87
2017-10-21T17:27:02.772Z,10.73
2017-10-21T17:29:30.099Z,12.03
2017-10-21T17:31:57.414Z,12.00
2017-10-21T17:34:24.730Z,11.63
2017-10-21T17:36:52.044Z,11.23
2017-10-21T17:39:19.360Z,11.13
2017-10-21T17:41:46.684Z,10.20
2017-10-21T17:44:14.019Z,11.30
2017-10-21T17:46:41.328Z,10.60
2017-10-21T17:49:08.642Z,10.63
2017-10-21T17:51:36.001Z,10.70
2017-10-21T17:54:03.313Z,11.33
2017-10-21T17:56:30.677Z,10.73
2017-10-21T17:58:57.964Z,10.70
2017-10-21T18:01:25.292Z,10.20
2017-10-21T18:03:52.588Z,11.40
2017-10-21T18:06:19.941Z,11.07
2017-10-21T18:08:47.265Z,10.63
2017-10-21T18:11:14.577Z,12.10
2017-10-21T18:13:41.903Z,11.23
2017-10-21T18:16:09.197Z,11.47
2017-10-21T18:18:36.532Z,12.53
2017-10-21T18:21:03.838Z,11.90
2017-10-21T18:23:31.166Z,10.70
2017-10-21T18:25:58.465Z,12.50
2017-10-21T18:28:25.812Z,12.20
2017-10-21T18:30:53.116Z,11.90
2017-10-21T18:33:20.434Z,14.33
2017-10-21T18:35:47.753Z,12.97
2017-10-21T18:38:15.333Z,13.90
2017-10-21T18:40:42.645Z,13.10
2017-10-21T18:43:09.967Z,12.40
2017-10-21T18:45:37.276Z,13.83
2017-10-21T18:48:04.593Z,14.00
2017-10-21T18:50:31.926Z,14.40
2017-10-21T18:52:59.232Z,14.73
2017-10-21T18:55:26.548Z,14.70
2017-10-21T18:57:53.862Z,13.83
2017-10-21T19:00:21.175Z,13.10
2017-10-21T19:02:48.494Z,14.53
2017-10-21T19:05:15.822Z,12.83
2017-10-21T19:07:43.138Z,13.00
2017-10-21T19:10:10.465Z,12.97
2017-10-21T19:12:37.789Z,12.87
2017-10-21T19:15:05.105Z,12.60
2017-10-21T19:17:32.416Z,12.60
2017-10-21T19:19:59.739Z,12.40
2017-10-21T19:22:27.048Z,11.93
2017-10-21T19:24:54.343Z,11.53
2017-10-21T19:27:21.714Z,12.77
2017-10-21T19:29:49.009Z,11.53
2017-10-21T19:32:16.330Z,12.87
2017-10-21T19:34:43.680Z,12.47
2017-10-21T19:37:11.004Z,12.33
2017-10-21T19:39:38.311Z,12.03
2017-10-21T19:42:05.660Z,11.77
2017-10-21T19:44:32.964Z,12.80
2017-10-21T19:47:00.290Z,13.63
2017-10-21T19:49:27.602Z,14.60
2017-10-21T19:51:54.915Z,13.73
2017-10-21T19:54:22.308Z,14.03
2017-10-21T19:56:49.728Z,13.80
2017-10-21T19:59:17.028Z,14.37
2017-10-21T20:01:44.340Z,13.60
2017-10-21T20:04:11.738Z,14.67
2017-10-21T20:06:39.053Z,15.00
2017-10-21T20:09:06.360Z,15.57
2017-10-21T20:11:33.660Z,15.20
2017-10-21T20:14:01.294Z,16.10
2017-10-21T20:16:28.663Z,14.57
2017-10-21T20:18:55.996Z,14.33
2017-10-21T20:21:23.301Z,13.70
2017-10-21T20:23:50.625Z,14.50
2017-10-21T20:26:17.928Z,13.23
2017-10-21T20:28:45.250Z,12.80
2017-10-21T20:31:12.564Z,12.60
2017-10-21T20:33:39.890Z,12.00
2017-10-21T20:36:07.218Z,11.77
2017-10-21T20:38:34.516Z,11.10
2017-10-21T20:41:01.858Z,9.87
2017-10-21T20:43:29.153Z,11.13
2017-10-21T20:45:56.493Z,9.47
2017-10-21T20:48:23.792Z,10.03
2017-10-21T20:50:51.132Z,9.80
2017-10-21T20:53:18.453Z,10.50
2017-10-21T20:55:45.784Z,10.17
2017-10-21T20:58:13.117Z,9.93
2017-10-21T21:00:40.601Z,9.77
2017-10-21T21:03:07.914Z,10.33
2017-10-21T21:05:35.245Z,10.03
2017-10-21T21:08:02.544Z,10.63
2017-10-21T21:10:30.199Z,10.40
2017-10-21T21:12:57.569Z,11.20
2017-10-21T21:15:24.913Z,10.40
2017-10-21T21:17:52.207Z,11.10
2017-10-21T21:20:19.511Z,10.17
2017-10-21T21:22:46.836Z,10.90
2017-10-21T21:25:15.046Z,11.00
2017-10-21T21:27:42.392Z,9.93
2017-10-21T21:30:09.707Z,10.90
2017-10-21T21:32:37.066Z,10.13
2017-10-21T21:35:04.794Z,10.10
2017-10-21T21:37:32.119Z,11.30
2017-10-21T21:39:59.455Z,11.27
2017-10-21T21:42:26.789Z,11.03
2017-10-21T21:44:54.085Z,11.60
2017-10-21T21:47:21.397Z,11.77
2017-10-21T21:49:48.706Z,10.60
2017-10-21T21:52:16.004Z,11.50
2017-10-21T21:54:43.348Z,11.80
2017-10-21T21:57:10.654Z,10.40
2017-10-21T21:59:37.991Z,12.07
2017-10-21T22:02:05.295Z,11.70
2017-10-21T22:04:32.619Z,11.37
2017-10-21T22:06:59.929Z,11.43
2017-10-21T22:09:27.266Z,12.07
2017-10-21T22:11:54.566Z,12.53
2017-10-21T22:14:22.726Z,11.63
2017-10-21T22:16:50.033Z,11.33
2017-10-21T22:19:17.364Z,12.63
2017-10-21T22:21:44.665Z,11.97
2017-10-21T22:24:11.989Z,12.03
2017-10-21T22:26:39.292Z,11.70
2017-10-21T22:29:06.608Z,11.40
2017-10-21T22:31:33.929Z,11.87
2017-10-21T22:34:01.230Z,11.80
2017-10-21T22:36:28.540Z,11.10
2017-10-21T22:38:55.896Z,11.80
2017-10-21T22:41:23.216Z,12.50
2017-10-21T22:43:50.529Z,12.17
2017-10-21T22:46:17.847Z,11.50
2017-10-21T22:48:45.172Z,11.77
2017-10-21T22:51:12.501Z,11.97
2017-10-21T22:53:39.805Z,12.20
2017-10-21T22:56:07.138Z,11.80
2017-10-21T22:58:34.437Z,12.23
2017-10-21T23:01:01.740Z,11.23
2017-10-21T23:03:29.076Z,11.40
2017-10-21T23:05:56.385Z,11.73
2017-10-21T23:08:23.719Z,11.60
2017-10-21T23:10:51.077Z,12.10
2017-10-21T23:13:18.397Z,12.40
2017-10-21T23:15:45.716Z,11.83
2017-10-21T23:18:13.036Z,11.67
2017-10-21T23:20:40.644Z,11.87
2017-10-21T23:23:08.137Z,11.87
2017-10-21T23:25:35.449Z,11.73
2017-10-21T23:28:02.785Z,12.50
2017-10-21T23:30:30.116Z,12.63
2017-10-21T23:32:57.468Z,12.23
2017-10-21T23:35:24.796Z,12.93
2017-10-21T23:37:52.091Z,13.10
2017-10-21T23:40:19.415Z,13.00
2017-10-21T23:42:46.717Z,12.73
2017-10-21T23:45:14.057Z,13.23
2017-10-21T23:47:41.353Z,12.57
2017-10-21T23:50:08.688Z,12.83
2017-10-21T23:52:35.988Z,12.80
2017-10-21T23:55:03.320Z,13.63
2017-10-21T23:57:30.629Z,13.00
2017-10-21T23:59:57.967Z,12.87
